Weather reports worldwide

Advertisment
Zinnwald-Georgenfeld, Germany (10582): temperature & dewpoint: 30.05.2020 09:00:00 - 05.06.2020 09:00:00 (CEST)Zinnwald-Georgenfeld, Germany (10582): temperature 5cm & temperature -5cm: 30.05.2020 09:00:00 - 05.06.2020 09:00:00 (CEST)Zinnwald-Georgenfeld, Germany (10582): temperature -20cm & temperature -100cm: 30.05.2020 09:00:00 - 05.06.2020 09:00:00 (CEST)Zinnwald-Georgenfeld, Germany (10582): wind speed & gusts: 30.05.2020 09:00:00 - 05.06.2020 09:00:00 (CEST)Zinnwald-Georgenfeld, Germany (10582): wind direction: 30.05.2020 09:00:00 - 05.06.2020 09:00:00 (CEST)Zinnwald-Georgenfeld, Germany (10582): visibility: 30.05.2020 09:00:00 - 05.06.2020 09:00:00 (CEST)Zinnwald-Georgenfeld, Germany (10582): sunshine duration: 30.05.2020 09:00:00 - 05.06.2020 09:00:00 (CEST)Zinnwald-Georgenfeld, Germany (10582): precipitation: 30.05.2020 09:00:00 - 05.06.2020 09:00:00 (CEST)
Date & Time tt [°C] td [°C] tt 5cm [°C] tt -5cm [°C] tt -20cm [°C] tt -100cm [°C] ff [km/h] ff [kn] fx [km/h] fx [kn] dd vv [km] sd [min] rr [mm]
05.06.2020 09:00:00 7,5 6,6 8,0 11,2 12,2 9,8 18 10 35 19 W 15 0 0,0
05.06.2020 08:00:00 7,3 7,0 7,5 10,0 12,3 9,7 22 12 33 18 W 0,3 0 0,2
05.06.2020 07:00:00 8,4 7,9 8,4 10,2 12,4 9,7 17 9 35 19 WNW 8 0 1,4
05.06.2020 06:00:00 9,4 9,2 9,4 10,6 12,6 9,7 13 7 22 12 WSW 4,2 0 0,0
05.06.2020 05:00:00 9,4 9,1 9,3 10,5 12,7 9,7 11 6 22 12 WSW 7 0 0,0
05.06.2020 04:00:00 9,8 9,3 9,5 10,6 12,9 9,7 13 7 31 17 W 8 0 0,1
05.06.2020 03:00:00 10,2 9,7 9,9 10,7 13,0 9,7 17 9 29 16 WSW 15 0 0,0
05.06.2020 02:00:00 10,2 9,7 10,0 10,7 13,2 9,7 16 8 21 12 WSW 22 0 0,0
05.06.2020 01:00:00 10,5 10,0 10,0 11,1 13,4 9,7 17 9 24 13 SW 23 0 0,0
05.06.2020 00:00:00 10,6 10,2 10,2 11,1 13,6 9,7 15 8 21 12 SSW 18 0 0,0
04.06.2020 23:00:00 10,7 10,5 10,3 11,6 13,7 9,7 11 6 19 11 SSW 7 0 0,0
04.06.2020 22:00:00 10,8 10,7 10,5 12,0 13,9 9,6 17 9 25 13 SSW 4,8 0 0,0
04.06.2020 21:00:00 11,0 10,8 10,9 12,5 14,0 9,6 14 7 22 12 S 8 0 4,6
04.06.2020 20:00:00 11,3 10,8 11,2 13,1 14,1 9,6 18 10 28 15 S 6 0 3,7
04.06.2020 19:00:00 12,0 11,2 11,9 14,2 14,1 9,6 21 12 36 20 S 10 0 0,0
04.06.2020 18:00:00 12,3 11,2 12,8 15,6 14,0 9,6 31 17 43 23 S 16 0 0,0
04.06.2020 17:00:00 12,5 11,4 13,1 17,2 13,8 9,6 24 13 33 18 S 9 4 0,0
04.06.2020 16:00:00 12,8 10,9 14,1 17,9 13,7 9,6 16 9 25 14 S 37 0 0,0
04.06.2020 15:00:00 12,8 11,2 13,4 17,6 13,5 9,6 16 9 34 18 SSW 20 0 0,4
04.06.2020 14:00:00 12,6 10,5 12,9 16,9 13,2 9,6 26 14 36 19 SSW 23 0 0,1
04.06.2020 13:00:00 13,0 9,7 13,8 17,4 12,9 9,5 24 13 38 21 S 45 0 0,0
04.06.2020 12:00:00 13,5 9,4 15,3 19,5 12,5 9,5 25 14 35 19 S 60 25 0,0
04.06.2020 11:00:00 14,2 10,4 18,0 20,6 12,3 9,5 21 12 30 16 S 66 50 0,0
04.06.2020 10:00:00 12,2 9,3 14,2 16,1 12,2 9,5 18 10 24 13 S 62 11 0,0
04.06.2020 09:00:00 10,7 9,6 12,2 13,7 12,2 9,5 21 11 26 14 S 34 12 0,0
04.06.2020 08:00:00 11,0 8,7 11,5 12,5 12,3 9,5 16 9 23 12 S 68 24 0,0
04.06.2020 07:00:00 10,4 7,9 10,3 10,0 12,6 9,5 16 9 21 11 S 75 33 0,0
04.06.2020 06:00:00 8,8 8,2 8,2 8,4 12,8 9,5 12 6 19 10 S 15 14 0,0
04.06.2020 05:00:00 9,0 7,7 7,8 8,4 13,1 9,5 16 9 22 12 S 33 0 0,0
04.06.2020 04:00:00 10,0 6,4 8,9 8,7 13,4 9,4 16 9 23 13 S 75 0 0,0
04.06.2020 03:00:00 10,2 6,1 8,4 9,1 13,8 9,4 18 10 21 12 S 75 0 0,0
04.06.2020 02:00:00 9,7 6,4 7,4 9,3 14,1 9,4 14 8 20 11 S 75 0 0,0
04.06.2020 01:00:00 10,0 6,7 7,9 9,7 14,4 9,4 12 7 22 12 SSW 75 0 0,0
04.06.2020 00:00:00 10,0 7,2 8,2 10,6 14,7 9,4 17 9 21 12 SSW 75 0 0,0
03.06.2020 23:00:00 11,0 7,9 9,6 12,2 15,0 9,4 9 5 25 14 ENE 75 0 7,7
03.06.2020 22:00:00 12,7 7,8 12,0 13,7 15,2 9,4 5 3 16 9 NNW 75 0 0,0
03.06.2020 21:00:00 14,1 7,8 12,9 14,5 15,3 9,4 9 5 14 8 ENE 72 0 0,0
03.06.2020 20:00:00 15,4 8,7 14,6 15,8 15,3 9,4 11 6 16 9 SSE 65 0 0,0
03.06.2020 19:00:00 16,7 8,0 16,6 17,6 15,3 9,4 13 7 19 10 NE 74 4 0,0
03.06.2020 18:00:00 17,6 7,2 18,7 20,2 15,1 9,3 14 8 27 14 NNE 75 48 0,0
03.06.2020 17:00:00 17,5 6,9 19,1 20,6 14,8 9,3 16 8 30 16 N 75 42 0,0
03.06.2020 16:00:00 17,4 8,2 18,4 21,6 14,4 9,3 19 10 31 17 NNE 70 43 0,0
03.06.2020 15:00:00 18,3 8,5 21,8 25,0 13,9 9,3 17 9 37 20 NNE 69 53 0,0
03.06.2020 14:00:00 18,7 8,5 22,8 24,8 13,4 9,3 16 9 32 17 NNW 61 52 0,0
03.06.2020 13:00:00 17,8 8,5 21,6 23,6 12,9 9,3 19 10 34 19 N 72 54 0,0
03.06.2020 12:00:00 17,5 8,9 21,4 22,6 12,4 9,3 21 12 37 20 N 66 57 0,0
03.06.2020 11:00:00 17,1 7,4 20,2 21,4 12,0 9,3 19 10 34 19 NNW 75 60 0,0
03.06.2020 10:00:00 16,6 8,7 19,6 19,8 11,7 9,3 15 8 27 14 NNW 59 60 0,0
03.06.2020 09:00:00 14,9 8,6 18,0 16,8 11,7 9,3 14 8 24 13 NW 75 60 0,0
03.06.2020 08:00:00 13,9 8,3 15,7 13,6 11,7 9,3 14 8 24 13 NW 75 60 0,0
03.06.2020 07:00:00 12,6 8,0 13,5 10,7 11,9 9,2 15 8 22 12 NW 75 60 0,0
03.06.2020 06:00:00 11,8 7,5 10,5 8,2 12,2 9,2 16 9 20 11 NW 75 16 0,0
03.06.2020 05:00:00 10,5 7,0 8,5 8,1 12,5 9,2 18 10 23 12 NW 72 0 0,0
03.06.2020 04:00:00 10,9 7,1 9,0 8,3 12,8 9,2 18 10 21 12 NW 74 0 0,0
03.06.2020 03:00:00 10,8 7,2 8,7 8,6 13,1 9,2 17 9 21 11 NW 75 0 0,0
03.06.2020 02:00:00 11,0 7,3 8,7 9,0 13,4 9,2 18 10 22 12 WNW 75 0 0,0
03.06.2020 01:00:00 10,2 7,4 8,2 9,5 13,7 9,2 18 10 23 13 WNW 75 0 0,0
03.06.2020 00:00:00 10,8 7,8 9,1 10,2 14,0 9,2 18 10 25 13 WNW 75 0 0,0
02.06.2020 23:00:00 11,1 8,2 9,7 11,0 14,3 9,2 18 10 58 31 NW 75 0 8,6
02.06.2020 22:00:00 10,9 8,2 9,7 12,3 14,5 9,2 13 7 25 13 NW 38 0 0,9
02.06.2020 21:00:00 11,2 9,0 10,4 13,6 14,7 9,2 14 7 21 11 W 32 20 0,3
02.06.2020 20:00:00 11,1 10,0 10,9 14,6 14,8 9,2 4 2 16 9 WSW 57 2 0,7
02.06.2020 19:00:00 11,4 10,0 11,5 15,5 14,8 9,2 8 4 51 27 NNE 60 0 2,2
02.06.2020 18:00:00 16,8 7,0 17,6 19,8 14,5 9,2 14 8 22 12 NW 72 21 0,0
02.06.2020 17:00:00 17,0 8,1 17,4 24,2 14,1 9,2 10 6 24 13 NNW 74 60 0,0
02.06.2020 16:00:00 13,5 11,6 16,1 22,4 13,6 9,2 7 4 42 23 N 55 18 1,4
02.06.2020 15:00:00 16,7 6,7 20,7 27,9 12,9 9,1 16 9 36 19 N 75 50 0,0
02.06.2020 14:00:00 16,1 7,0 21,5 27,6 12,3 9,1 19 10 32 18 N 68 60 0,0
02.06.2020 13:00:00 15,7 6,8 20,0 25,9 11,7 9,1 19 10 40 21 NNE 75 60 0,0
02.06.2020 12:00:00 15,2 6,2 19,8 24,0 11,2 9,1 20 11 35 19 N 75 60 0,0
02.06.2020 11:00:00 14,2 6,0 18,2 20,8 10,9 9,1 24 13 37 20 N 65 60 0,0
02.06.2020 10:00:00 12,9 5,9 16,6 17,8 10,8 9,1 21 12 37 20 N 75 60 0,0
02.06.2020 09:00:00 12,3 5,6 14,9 14,5 10,7 9,1 19 10 34 18 N 75 60 0,0
02.06.2020 08:00:00 11,7 5,0 13,2 11,7 10,9 9,1 21 11 29 16 N 75 60 0,0
02.06.2020 07:00:00 10,3 4,9 10,6 8,7 11,1 9,1 19 10 27 15 N 75 60 0,0
02.06.2020 06:00:00 8,8 4,7 7,8 6,4 11,4 9,1 20 11 25 13 NNW 75 16 0,0
02.06.2020 05:00:00 8,3 4,5 6,9 6,4 11,7 9,1 18 10 24 13 N 75 0 0,0
02.06.2020 04:00:00 8,8 4,5 7,2 6,7 12,0 9,1 15 8 22 12 N 74 0 0,0
02.06.2020 03:00:00 9,5 4,1 7,8 6,9 12,3 9,1 13 7 23 12 N 75 0 0,0
02.06.2020 02:00:00 9,7 3,0 7,9 7,1 12,7 9,1 14 8 22 12 N 71 0 0,0
02.06.2020 01:00:00 9,4 2,7 5,2 7,5 13,0 9,1 9 5 16 9 NE 75 0 0,0
02.06.2020 00:00:00 9,8 2,5 5,0 8,4 13,3 9,1 9 5 14 8 NNE 75 0 0,0
01.06.2020 23:00:00 10,9 3,0 6,9 9,7 13,6 9,1 9 5 21 11 NNE 75 0 0,0
01.06.2020 22:00:00 12,4 3,3 10,4 11,2 13,7 9,1 13 7 22 12 NNE 75 0 0,0
01.06.2020 21:00:00 13,6 3,3 12,0 13,3 13,7 9,1 14 8 23 12 N 75 37 0,0
01.06.2020 20:00:00 15,2 3,2 15,0 16,6 13,6 9,1 19 10 29 16 NNE 75 60 0,0
01.06.2020 19:00:00 16,0 4,0 17,3 19,5 13,3 9,1 19 10 36 19 N 75 60 0,0
01.06.2020 18:00:00 16,3 4,9 18,8 21,8 12,8 9,1 23 12 36 19 N 75 60 0,0
01.06.2020 17:00:00 16,1 5,2 19,0 23,3 12,3 9,1 25 14 38 21 NNE 73 59 0,0
01.06.2020 16:00:00 16,3 6,6 20,9 24,9 11,7 9,1 19 10 37 20 N 67 60 0,0
01.06.2020 15:00:00 16,1 6,6 20,6 23,8 11,1 9,1 21 11 40 22 N 58 60 0,0
01.06.2020 14:00:00 15,5 7,3 19,7 22,6 10,6 9,1 23 12 40 22 N 75 60 0,0
01.06.2020 13:00:00 14,3 6,5 18,5 21,0 10,1 9,1 23 12 41 22 NNE 75 60 0,0
01.06.2020 12:00:00 13,8 6,4 17,9 20,0 9,7 9,1 21 11 34 19 NNE 75 60 0,0
01.06.2020 11:00:00 13,2 5,5 16,4 18,4 9,3 9,1 21 11 36 19 NNE 73 60 0,0
01.06.2020 10:00:00 12,8 4,6 15,6 15,8 9,1 9,2 24 13 35 19 NNE 60 60 0,0
01.06.2020 09:00:00 12,5 4,9 14,7 13,5 9,0 9,2 20 11 30 16 N 58 60 0,0
01.06.2020 08:00:00 11,2 5,0 12,8 10,9 9,1 9,2 16 9 27 15 N 69 60 0,0
01.06.2020 07:00:00 9,7 5,7 10,0 7,8 9,2 9,2 19 10 26 14 N 59 60 0,0
01.06.2020 06:00:00 8,8 4,4 6,9 5,1 9,4 9,2 12 7 18 10 N 69 16 0,0
01.06.2020 05:00:00 8,1 4,7 5,8 5,0 9,6 9,2 13 7 16 9 N 64 0 0,0
01.06.2020 04:00:00 8,0 5,5 5,7 5,3 9,8 9,2 12 7 16 9 N 59 0 0,0
01.06.2020 03:00:00 7,8 5,6 5,9 5,8 10,0 9,2 11 6 19 10 NNE 58 0 0,0
01.06.2020 02:00:00 8,7 6,2 7,0 6,5 10,1 9,2 14 7 27 15 N 57 0 0,0
01.06.2020 01:00:00 9,7 6,4 8,5 7,2 10,3 9,2 22 12 30 16 N 57 0 0,0
01.06.2020 00:00:00 10,7 6,5 9,0 7,8 10,4 9,2 17 9 32 18 N 63 0 0,0
31.05.2020 23:00:00 10,9 6,0 9,2 7,8 10,5 9,2 18 10 26 14 NNW 64 0 0,0
31.05.2020 22:00:00 10,8 6,3 9,2 8,5 10,5 9,2 18 10 28 15 NNW 63 0 0,0
31.05.2020 21:00:00 11,5 6,8 10,0 10,0 10,4 9,2 21 11 33 18 NW 69 13 0,0
31.05.2020 20:00:00 13,3 7,0 12,5 12,7 10,2 9,2 20 11 33 18 NNW 75 60 0,0
31.05.2020 19:00:00 13,9 7,4 14,5 14,8 9,9 9,2 18 10 39 21 NNW 74 57 0,0
31.05.2020 18:00:00 13,3 7,0 14,6 15,8 9,6 9,2 24 13 37 20 NNW 66 52 0,0
31.05.2020 17:00:00 12,0 6,7 13,6 15,0 9,4 9,2 25 14 46 25 N 71 38 0,0
31.05.2020 16:00:00 11,9 7,0 14,8 15,6 9,2 9,2 29 15 44 24 NNW 56 28 0,0
31.05.2020 15:00:00 9,0 6,1 9,7 10,6 9,2 9,2 25 13 43 23 NW 62 0 0,0
31.05.2020 14:00:00 7,7 5,8 7,9 9,7 9,1 9,2 27 14 42 23 NW 52 0 0,0
31.05.2020 13:00:00 6,7 5,7 6,9 9,3 9,0 9,2 23 12 45 25 NW 38 0 0,0
31.05.2020 12:00:00 6,5 5,6 7,0 10,0 8,8 9,2 22 12 37 20 NW 34 0 0,4
31.05.2020 11:00:00 7,0 4,2 7,2 10,4 8,7 9,2 21 11 37 20 NNW 29 0 0,0
31.05.2020 10:00:00 7,1 2,7 8,4 10,2 8,6 9,2 23 12 40 21 NNW 75 3 0,0
31.05.2020 09:00:00 5,5 3,3 6,8 7,9 8,7 9,2 19 10 35 19 NNW 75 0 0,0
31.05.2020 08:00:00 5,2 3,0 5,8 6,8 8,8 9,2 18 10 32 17 NNW 69 0 0,0
31.05.2020 07:00:00 4,6 3,2 4,8 5,6 8,9 9,2 22 12 31 17 NNW 58 0 0,0
31.05.2020 06:00:00 4,6 3,0 4,3 4,7 9,1 9,2 18 10 27 14 NNW 61 0 0,0
31.05.2020 05:00:00 4,8 2,8 3,9 4,4 9,3 9,2 19 10 25 14 NNW 58 0 0,0
31.05.2020 04:00:00 5,0 3,0 4,1 4,3 9,5 9,2 14 8 26 14 N 64 0 0,0
31.05.2020 03:00:00 5,2 2,7 4,4 4,2 9,8 9,2 19 11 29 16 N 68 0 0,0
31.05.2020 02:00:00 5,7 1,7 4,5 4,2 10,1 9,2 20 11 29 16 N 75 0 0,0
31.05.2020 01:00:00 6,1 1,4 4,7 4,4 10,3 9,2 19 11 29 16 N 75 0 0,0
31.05.2020 00:00:00 6,6 1,7 5,4 5,0 10,6 9,2 17 9 27 15 N 75 0 0,0
30.05.2020 23:00:00 6,9 1,6 5,5 5,5 10,9 9,2 18 10 29 15 N 75 0 0,0
30.05.2020 22:00:00 7,3 1,7 6,0 6,3 11,0 9,2 18 10 27 15 N 75 0 0,0
30.05.2020 21:00:00 8,1 1,5 6,9 7,8 11,1 9,2 16 9 23 12 NNW 75 12 0,0
30.05.2020 20:00:00 9,1 0,8 8,5 9,8 11,2 9,2 14 8 22 12 N 75 3 0,0
30.05.2020 19:00:00 9,7 1,2 10,1 11,0 11,2 9,2 13 7 26 14 N 75 0 0,0
30.05.2020 18:00:00 9,6 0,5 9,8 11,8 11,1 9,2 20 11 29 16 N 75 6 0,0
30.05.2020 17:00:00 10,4 0,5 12,0 13,5 10,9 9,2 17 9 27 14 N 75 8 0,0
30.05.2020 16:00:00 9,8 -0,2 10,9 14,4 10,6 9,2 15 8 32 17 NNE 75 8 0,0
30.05.2020 15:00:00 9,6 0,1 11,1 16,1 10,3 9,2 22 12 36 19 NNE 75 38 0,0
30.05.2020 14:00:00 9,4 -0,1 11,1 15,9 10,0 9,2 20 11 39 21 N 75 32 0,0
30.05.2020 13:00:00 10,5 1,7 14,5 17,0 9,6 9,2 20 11 41 22 N 72 50 0,0
30.05.2020 12:00:00 9,2 -0,3 12,7 15,4 9,4 9,2 25 14 42 23 N 75 59 0,0
30.05.2020 11:00:00 8,6 -0,4 11,7 14,1 9,2 9,1 28 15 45 25 NNE 75 57 0,0
30.05.2020 10:00:00 7,2 1,6 8,5 10,6 9,2 9,1 24 13 42 23 NNE 75 44 0,0
30.05.2020 09:00:00 6,6 1,9 7,7 10,6 9,2 9,1 26 14 36 19 NNE 73 56 0,0

tt = temperature
td = dewpoint
tt 5cm = temperature 5cm
tt -5cm = temperature -5cm
tt -20cm = temperature -20cm
tt -100cm = temperature -100cm
ff = wind speed
fx = gusts
dd = wind direction
vv = visibility
sd = sunshine duration
rr = precipitation

Next stations